sensor_id;sensor_type;location;lat;lon;timestamp;noise_LAeq;noise_LA_min;noise_LA_max;noise_LA01;noise_LA95
80580;Laerm;69939;52.402;6.608;2023-06-22T00:02:20;42.13;34.08;61.72;;
80580;Laerm;69939;52.402;6.608;2023-06-22T00:04:47;53.17;34.02;67.91;;
80580;Laerm;69939;52.402;6.608;2023-06-22T00:07:13;53.56;33.60;71.05;;
80580;Laerm;69939;52.402;6.608;2023-06-22T00:09:41;41.78;33.23;62.71;;
80580;Laerm;69939;52.402;6.608;2023-06-22T00:12:08;48.74;33.06;65.16;;
80580;Laerm;69939;52.402;6.608;2023-06-22T00:14:35;53.08;33.04;71.63;;
80580;Laerm;69939;52.402;6.608;2023-06-22T00:17:03;41.77;32.55;61.87;;
80580;Laerm;69939;52.402;6.608;2023-06-22T00:19:30;50.81;34.04;67.42;;
80580;Laerm;69939;52.402;6.608;2023-06-22T00:21:58;41.86;33.35;61.70;;
80580;Laerm;69939;52.402;6.608;2023-06-22T00:24:25;49.27;34.55;65.19;;
80580;Laerm;69939;52.402;6.608;2023-06-22T00:26:52;55.26;34.07;73.58;;
80580;Laerm;69939;52.402;6.608;2023-06-22T00:29:19;44.99;33.40;63.56;;
80580;Laerm;69939;52.402;6.608;2023-06-22T00:31:46;41.71;32.60;62.57;;
80580;Laerm;69939;52.402;6.608;2023-06-22T00:34:16;52.65;33.63;70.35;;
80580;Laerm;69939;52.402;6.608;2023-06-22T00:36:42;41.77;32.45;62.70;;
80580;Laerm;69939;52.402;6.608;2023-06-22T00:39:09;41.72;32.26;62.74;;
80580;Laerm;69939;52.402;6.608;2023-06-22T00:41:37;41.83;32.61;62.45;;
80580;Laerm;69939;52.402;6.608;2023-06-22T00:44:04;55.26;34.22;69.53;;
80580;Laerm;69939;52.402;6.608;2023-06-22T00:46:32;43.61;32.47;62.49;;
80580;Laerm;69939;52.402;6.608;2023-06-22T00:48:59;42.01;33.71;62.41;;
80580;Laerm;69939;52.402;6.608;2023-06-22T00:51:28;42.18;33.80;62.50;;
80580;Laerm;69939;52.402;6.608;2023-06-22T00:53:55;53.04;33.82;68.99;;
80580;Laerm;69939;52.402;6.608;2023-06-22T00:56:24;41.81;33.47;63.57;;
80580;Laerm;69939;52.402;6.608;2023-06-22T00:58:52;41.86;32.83;61.70;;
80580;Laerm;69939;52.402;6.608;2023-06-22T01:01:20;41.97;33.84;62.59;;
80580;Laerm;69939;52.402;6.608;2023-06-22T01:03:49;51.14;32.83;70.23;;
80580;Laerm;69939;52.402;6.608;2023-06-22T01:06:22;54.60;32.76;72.10;;
80580;Laerm;69939;52.402;6.608;2023-06-22T01:09:05;54.00;33.07;70.90;;
80580;Laerm;69939;52.402;6.608;2023-06-22T01:11:41;48.61;34.14;65.60;;
80580;Laerm;69939;52.402;6.608;2023-06-22T01:14:16;41.52;33.23;62.66;;
80580;Laerm;69939;52.402;6.608;2023-06-22T01:16:46;53.19;33.21;70.37;;
80580;Laerm;69939;52.402;6.608;2023-06-22T01:19:34;55.69;32.88;71.75;;
80580;Laerm;69939;52.402;6.608;2023-06-22T01:22:03;41.33;33.25;62.02;;
80580;Laerm;69939;52.402;6.608;2023-06-22T01:24:48;41.28;33.03;62.61;;
80580;Laerm;69939;52.402;6.608;2023-06-22T01:27:32;51.86;32.87;69.53;;
80580;Laerm;69939;52.402;6.608;2023-06-22T01:30:06;41.11;32.42;61.61;;
80580;Laerm;69939;52.402;6.608;2023-06-22T01:32:37;41.52;33.62;62.55;;
80580;Laerm;69939;52.402;6.608;2023-06-22T01:35:07;41.54;33.85;63.36;;
80580;Laerm;69939;52.402;6.608;2023-06-22T01:37:38;51.56;33.55;69.57;;
80580;Laerm;69939;52.402;6.608;2023-06-22T01:40:08;59.33;34.58;75.66;;
80580;Laerm;69939;52.402;6.608;2023-06-22T01:42:38;41.65;33.79;62.27;;
80580;Laerm;69939;52.402;6.608;2023-06-22T01:45:08;60.94;34.12;77.63;;
80580;Laerm;69939;52.402;6.608;2023-06-22T01:47:36;53.78;33.44;71.74;;
80580;Laerm;69939;52.402;6.608;2023-06-22T01:50:06;41.32;33.66;63.34;;
80580;Laerm;69939;52.402;6.608;2023-06-22T01:52:33;41.41;33.40;63.24;;
80580;Laerm;69939;52.402;6.608;2023-06-22T01:55:00;41.53;33.83;62.79;;
80580;Laerm;69939;52.402;6.608;2023-06-22T01:57:27;53.15;34.57;72.23;;
80580;Laerm;69939;52.402;6.608;2023-06-22T02:00:00;42.38;34.63;62.42;;
80580;Laerm;69939;52.402;6.608;2023-06-22T02:02:36;55.46;34.97;71.13;;
80580;Laerm;69939;52.402;6.608;2023-06-22T02:05:09;44.24;34.67;62.51;;
80580;Laerm;69939;52.402;6.608;2023-06-22T02:07:47;44.09;34.92;62.38;;
80580;Laerm;69939;52.402;6.608;2023-06-22T02:10:19;54.87;35.70;73.45;;
80580;Laerm;69939;52.402;6.608;2023-06-22T02:12:50;43.34;35.46;62.74;;
80580;Laerm;69939;52.402;6.608;2023-06-22T02:15:18;45.15;35.56;62.27;;
80580;Laerm;69939;52.402;6.608;2023-06-22T02:17:47;59.45;36.09;76.93;;
80580;Laerm;69939;52.402;6.608;2023-06-22T02:20:15;45.44;35.60;61.87;;
80580;Laerm;69939;52.402;6.608;2023-06-22T02:22:42;52.41;35.99;69.57;;
80580;Laerm;69939;52.402;6.608;2023-06-22T02:25:08;45.62;36.13;62.81;;
80580;Laerm;69939;52.402;6.608;2023-06-22T02:27:35;53.61;36.39;70.04;;
80580;Laerm;69939;52.402;6.608;2023-06-22T02:30:07;58.95;36.88;74.31;;
80580;Laerm;69939;52.402;6.608;2023-06-22T02:32:35;45.10;35.68;62.51;;
80580;Laerm;69939;52.402;6.608;2023-06-22T02:35:04;56.90;36.41;73.99;;
80580;Laerm;69939;52.402;6.608;2023-06-22T02:37:31;63.59;37.46;80.22;;
80580;Laerm;69939;52.402;6.608;2023-06-22T02:39:58;55.22;37.69;72.08;;
80580;Laerm;69939;52.402;6.608;2023-06-22T02:42:25;61.94;37.80;75.47;;
80580;Laerm;69939;52.402;6.608;2023-06-22T02:44:52;61.85;37.66;75.81;;
80580;Laerm;69939;52.402;6.608;2023-06-22T02:47:21;61.93;37.91;79.36;;
80580;Laerm;69939;52.402;6.608;2023-06-22T02:49:48;60.74;37.37;76.74;;
80580;Laerm;69939;52.402;6.608;2023-06-22T02:52:16;62.49;36.99;74.55;;
80580;Laerm;69939;52.402;6.608;2023-06-22T02:54:43;62.37;37.22;78.28;;
80580;Laerm;69939;52.402;6.608;2023-06-22T02:57:10;62.21;37.47;76.91;;
80580;Laerm;69939;52.402;6.608;2023-06-22T02:59:39;61.21;37.24;82.20;;
80580;Laerm;69939;52.402;6.608;2023-06-22T03:02:06;59.49;35.54;73.81;;
80580;Laerm;69939;52.402;6.608;2023-06-22T03:04:33;61.61;37.26;76.25;;
80580;Laerm;69939;52.402;6.608;2023-06-22T03:07:00;62.55;39.19;73.97;;
80580;Laerm;69939;52.402;6.608;2023-06-22T03:09:29;61.37;42.46;74.54;;
80580;Laerm;69939;52.402;6.608;2023-06-22T03:11:56;61.20;37.82;74.52;;
80580;Laerm;69939;52.402;6.608;2023-06-22T03:14:22;61.43;37.59;75.46;;
80580;Laerm;69939;52.402;6.608;2023-06-22T03:16:50;59.28;38.00;72.95;;
80580;Laerm;69939;52.402;6.608;2023-06-22T03:19:16;61.28;38.77;76.33;;
80580;Laerm;69939;52.402;6.608;2023-06-22T03:21:48;60.48;37.73;74.25;;
80580;Laerm;69939;52.402;6.608;2023-06-22T03:24:14;62.19;38.66;76.67;;
80580;Laerm;69939;52.402;6.608;2023-06-22T03:26:42;60.07;38.07;75.91;;
80580;Laerm;69939;52.402;6.608;2023-06-22T03:29:13;62.28;37.24;81.69;;
80580;Laerm;69939;52.402;6.608;2023-06-22T03:31:41;61.71;38.36;73.61;;
80580;Laerm;69939;52.402;6.608;2023-06-22T03:34:07;61.52;38.72;73.95;;
80580;Laerm;69939;52.402;6.608;2023-06-22T03:36:34;62.35;38.65;76.83;;
80580;Laerm;69939;52.402;6.608;2023-06-22T03:39:01;62.06;37.41;75.03;;
80580;Laerm;69939;52.402;6.608;2023-06-22T03:41:29;64.43;39.39;74.83;;
80580;Laerm;69939;52.402;6.608;2023-06-22T03:43:57;63.37;40.94;76.35;;
80580;Laerm;69939;52.402;6.608;2023-06-22T03:46:23;63.00;38.29;75.07;;
80580;Laerm;69939;52.402;6.608;2023-06-22T03:48:51;64.47;39.63;76.62;;
80580;Laerm;69939;52.402;6.608;2023-06-22T03:51:18;62.80;45.04;74.73;;
80580;Laerm;69939;52.402;6.608;2023-06-22T03:53:45;65.96;42.50;75.96;;
80580;Laerm;69939;52.402;6.608;2023-06-22T03:56:13;63.55;40.54;74.34;;
80580;Laerm;69939;52.402;6.608;2023-06-22T03:58:45;64.50;45.03;81.27;;
80580;Laerm;69939;52.402;6.608;2023-06-22T04:01:14;68.16;43.15;87.01;;
80580;Laerm;69939;52.402;6.608;2023-06-22T04:03:42;64.16;46.38;75.22;;
80580;Laerm;69939;52.402;6.608;2023-06-22T04:06:09;64.92;41.79;75.52;;
80580;Laerm;69939;52.402;6.608;2023-06-22T04:08:36;63.36;42.92;76.22;;
80580;Laerm;69939;52.402;6.608;2023-06-22T04:11:03;64.89;42.22;75.58;;
80580;Laerm;69939;52.402;6.608;2023-06-22T04:13:30;63.76;45.53;75.85;;
80580;Laerm;69939;52.402;6.608;2023-06-22T04:15:57;67.27;48.25;75.92;;
80580;Laerm;69939;52.402;6.608;2023-06-22T04:18:25;64.59;42.11;76.12;;
80580;Laerm;69939;52.402;6.608;2023-06-22T04:20:52;62.32;41.97;75.19;;
80580;Laerm;69939;52.402;6.608;2023-06-22T04:23:19;63.92;42.79;73.79;;
80580;Laerm;69939;52.402;6.608;2023-06-22T04:25:46;64.57;41.26;85.44;;
80580;Laerm;69939;52.402;6.608;2023-06-22T04:28:14;66.24;44.00;77.05;;
80580;Laerm;69939;52.402;6.608;2023-06-22T04:30:41;65.44;46.35;75.93;;
80580;Laerm;69939;52.402;6.608;2023-06-22T04:33:12;66.15;41.93;80.56;;
80580;Laerm;69939;52.402;6.608;2023-06-22T04:35:42;65.17;42.74;78.54;;
80580;Laerm;69939;52.402;6.608;2023-06-22T04:38:12;65.11;43.03;75.04;;
80580;Laerm;69939;52.402;6.608;2023-06-22T04:40:40;66.77;49.07;79.74;;
80580;Laerm;69939;52.402;6.608;2023-06-22T04:43:07;65.63;43.61;75.86;;
80580;Laerm;69939;52.402;6.608;2023-06-22T04:45:38;64.87;48.07;73.23;;
80580;Laerm;69939;52.402;6.608;2023-06-22T04:48:05;65.80;47.81;75.85;;
80580;Laerm;69939;52.402;6.608;2023-06-22T04:50:36;66.78;48.48;76.59;;
80580;Laerm;69939;52.402;6.608;2023-06-22T04:53:06;65.24;48.06;74.72;;
80580;Laerm;69939;52.402;6.608;2023-06-22T04:55:32;66.07;46.40;75.65;;
80580;Laerm;69939;52.402;6.608;2023-06-22T04:57:59;66.10;47.47;78.22;;
80580;Laerm;69939;52.402;6.608;2023-06-22T05:00:31;66.60;49.50;77.40;;
80580;Laerm;69939;52.402;6.608;2023-06-22T05:02:57;68.26;46.75;84.65;;
80580;Laerm;69939;52.402;6.608;2023-06-22T05:05:24;66.42;49.35;76.06;;
80580;Laerm;69939;52.402;6.608;2023-06-22T05:07:52;66.46;48.24;76.09;;
80580;Laerm;69939;52.402;6.608;2023-06-22T05:10:21;65.84;49.90;74.05;;
80580;Laerm;69939;52.402;6.608;2023-06-22T05:12:48;67.69;48.93;84.39;;
80580;Laerm;69939;52.402;6.608;2023-06-22T05:15:15;67.65;49.70;78.82;;
80580;Laerm;69939;52.402;6.608;2023-06-22T05:17:42;68.57;52.95;76.80;;
80580;Laerm;69939;52.402;6.608;2023-06-22T05:20:13;66.59;47.61;73.87;;
80580;Laerm;69939;52.402;6.608;2023-06-22T05:22:43;66.37;49.76;78.97;;
80580;Laerm;69939;52.402;6.608;2023-06-22T05:25:11;66.96;44.39;79.68;;
80580;Laerm;69939;52.402;6.608;2023-06-22T05:27:39;66.86;46.95;75.35;;
80580;Laerm;69939;52.402;6.608;2023-06-22T05:30:08;66.18;46.67;76.82;;
80580;Laerm;69939;52.402;6.608;2023-06-22T05:32:35;65.92;48.33;75.05;;
80580;Laerm;69939;52.402;6.608;2023-06-22T05:35:02;66.69;50.65;75.66;;
80580;Laerm;69939;52.402;6.608;2023-06-22T05:37:29;76.48;51.28;100.19;;
80580;Laerm;69939;52.402;6.608;2023-06-22T05:39:56;67.36;46.16;74.88;;
80580;Laerm;69939;52.402;6.608;2023-06-22T05:42:23;66.06;47.42;73.77;;
80580;Laerm;69939;52.402;6.608;2023-06-22T05:44:52;67.48;47.10;75.91;;
80580;Laerm;69939;52.402;6.608;2023-06-22T05:47:19;65.68;53.60;74.06;;
80580;Laerm;69939;52.402;6.608;2023-06-22T05:49:48;67.09;49.57;76.94;;
80580;Laerm;69939;52.402;6.608;2023-06-22T05:52:14;67.56;47.53;77.19;;
80580;Laerm;69939;52.402;6.608;2023-06-22T05:54:41;67.55;50.38;78.29;;
80580;Laerm;69939;52.402;6.608;2023-06-22T05:57:08;66.31;46.28;73.49;;
80580;Laerm;69939;52.402;6.608;2023-06-22T05:59:35;64.91;43.30;73.70;;
80580;Laerm;69939;52.402;6.608;2023-06-22T06:02:04;67.46;49.58;78.12;;
80580;Laerm;69939;52.402;6.608;2023-06-22T06:04:30;66.17;47.34;75.26;;
80580;Laerm;69939;52.402;6.608;2023-06-22T06:06:57;67.31;49.00;78.10;;
80580;Laerm;69939;52.402;6.608;2023-06-22T06:09:24;66.67;54.65;78.10;;
80580;Laerm;69939;52.402;6.608;2023-06-22T06:11:50;63.11;51.18;71.06;;
80580;Laerm;69939;52.402;6.608;2023-06-22T06:14:17;66.56;47.51;74.91;;
80580;Laerm;69939;52.402;6.608;2023-06-22T06:16:44;65.02;51.11;73.07;;
80580;Laerm;69939;52.402;6.608;2023-06-22T06:19:12;67.59;46.41;75.36;;
80580;Laerm;69939;52.402;6.608;2023-06-22T06:21:38;67.41;49.68;75.57;;
80580;Laerm;69939;52.402;6.608;2023-06-22T06:24:06;67.34;50.65;76.72;;
80580;Laerm;69939;52.402;6.608;2023-06-22T06:26:32;67.91;50.31;76.35;;
80580;Laerm;69939;52.402;6.608;2023-06-22T06:29:01;67.88;51.82;77.34;;
80580;Laerm;69939;52.402;6.608;2023-06-22T06:31:29;66.18;49.24;73.77;;
80580;Laerm;69939;52.402;6.608;2023-06-22T06:33:55;67.17;49.46;77.56;;
80580;Laerm;69939;52.402;6.608;2023-06-22T06:36:24;68.16;48.26;78.90;;
80580;Laerm;69939;52.402;6.608;2023-06-22T06:38:50;66.96;52.10;73.69;;
80580;Laerm;69939;52.402;6.608;2023-06-22T06:41:17;67.22;53.15;77.85;;
80580;Laerm;69939;52.402;6.608;2023-06-22T06:43:44;65.79;45.37;74.77;;
80580;Laerm;69939;52.402;6.608;2023-06-22T06:46:11;66.17;44.64;74.57;;
80580;Laerm;69939;52.402;6.608;2023-06-22T06:48:38;66.58;47.13;75.13;;
80580;Laerm;69939;52.402;6.608;2023-06-22T06:51:05;66.15;46.81;76.47;;
80580;Laerm;69939;52.402;6.608;2023-06-22T06:53:36;65.47;47.47;75.74;;
80580;Laerm;69939;52.402;6.608;2023-06-22T06:56:02;67.73;47.15;85.06;;
80580;Laerm;69939;52.402;6.608;2023-06-22T06:58:30;66.93;50.01;81.58;;
80580;Laerm;69939;52.402;6.608;2023-06-22T07:00:57;66.17;44.87;77.42;;
80580;Laerm;69939;52.402;6.608;2023-06-22T07:03:24;65.38;44.17;75.05;;
80580;Laerm;69939;52.402;6.608;2023-06-22T07:05:51;65.29;46.06;77.60;;
80580;Laerm;69939;52.402;6.608;2023-06-22T07:08:17;66.35;48.25;76.79;;
80580;Laerm;69939;52.402;6.608;2023-06-22T07:10:47;67.49;49.61;79.48;;
80580;Laerm;69939;52.402;6.608;2023-06-22T07:13:16;64.24;45.90;78.61;;
80580;Laerm;69939;52.402;6.608;2023-06-22T07:15:43;64.66;44.64;73.29;;
80580;Laerm;69939;52.402;6.608;2023-06-22T07:18:09;64.17;46.66;74.21;;
80580;Laerm;69939;52.402;6.608;2023-06-22T07:20:36;64.64;42.68;77.51;;
80580;Laerm;69939;52.402;6.608;2023-06-22T07:23:05;66.36;50.12;75.94;;
80580;Laerm;69939;52.402;6.608;2023-06-22T07:25:31;64.38;45.22;75.19;;
80580;Laerm;69939;52.402;6.608;2023-06-22T07:28:03;67.41;43.86;84.14;;
80580;Laerm;69939;52.402;6.608;2023-06-22T07:30:30;66.46;47.39;76.55;;
80580;Laerm;69939;52.402;6.608;2023-06-22T07:32:59;63.60;47.02;73.03;;
80580;Laerm;69939;52.402;6.608;2023-06-22T07:35:29;67.01;46.11;85.16;;
80580;Laerm;69939;52.402;6.608;2023-06-22T07:37:56;66.08;45.57;77.06;;
80580;Laerm;69939;52.402;6.608;2023-06-22T07:40:23;63.72;42.47;78.41;;
80580;Laerm;69939;52.402;6.608;2023-06-22T07:42:50;66.21;43.37;79.90;;
80580;Laerm;69939;52.402;6.608;2023-06-22T07:45:19;64.47;44.03;75.26;;
80580;Laerm;69939;52.402;6.608;2023-06-22T07:47:46;65.76;46.04;78.16;;
80580;Laerm;69939;52.402;6.608;2023-06-22T07:50:13;66.00;49.51;76.62;;
80580;Laerm;69939;52.402;6.608;2023-06-22T07:52:39;66.40;43.30;82.31;;
80580;Laerm;69939;52.402;6.608;2023-06-22T07:55:07;65.93;51.19;82.53;;
80580;Laerm;69939;52.402;6.608;2023-06-22T07:57:34;65.89;42.83;75.13;;
80580;Laerm;69939;52.402;6.608;2023-06-22T08:00:04;65.21;44.75;74.11;;
80580;Laerm;69939;52.402;6.608;2023-06-22T08:02:39;65.30;45.25;81.21;;
80580;Laerm;69939;52.402;6.608;2023-06-22T08:05:07;64.45;44.24;75.40;;
80580;Laerm;69939;52.402;6.608;2023-06-22T08:07:34;64.62;48.77;75.19;;
80580;Laerm;69939;52.402;6.608;2023-06-22T08:10:04;65.29;46.73;77.08;;
80580;Laerm;69939;52.402;6.608;2023-06-22T08:12:31;65.38;44.47;77.51;;
80580;Laerm;69939;52.402;6.608;2023-06-22T08:14:57;65.77;44.33;79.44;;
80580;Laerm;69939;52.402;6.608;2023-06-22T08:17:24;63.93;42.90;74.23;;
80580;Laerm;69939;52.402;6.608;2023-06-22T08:19:52;66.98;49.27;82.72;;
80580;Laerm;69939;52.402;6.608;2023-06-22T08:22:19;64.43;44.99;78.15;;
80580;Laerm;69939;52.402;6.608;2023-06-22T08:24:46;65.30;46.37;77.20;;
80580;Laerm;69939;52.402;6.608;2023-06-22T08:27:12;66.60;44.92;80.50;;
80580;Laerm;69939;52.402;6.608;2023-06-22T08:29:40;62.62;42.49;72.86;;
80580;Laerm;69939;52.402;6.608;2023-06-22T08:32:08;63.71;44.65;76.17;;
80580;Laerm;69939;52.402;6.608;2023-06-22T08:34:35;65.22;47.03;75.19;;
80580;Laerm;69939;52.402;6.608;2023-06-22T08:37:03;65.91;46.31;77.44;;
80580;Laerm;69939;52.402;6.608;2023-06-22T08:39:32;65.58;42.87;76.40;;
80580;Laerm;69939;52.402;6.608;2023-06-22T08:41:59;65.49;43.05;77.52;;
80580;Laerm;69939;52.402;6.608;2023-06-22T08:44:26;65.77;44.95;77.17;;
80580;Laerm;69939;52.402;6.608;2023-06-22T08:46:52;66.19;47.81;78.25;;
80580;Laerm;69939;52.402;6.608;2023-06-22T08:49:20;62.79;43.36;73.78;;
80580;Laerm;69939;52.402;6.608;2023-06-22T08:51:46;63.97;44.85;75.10;;
80580;Laerm;69939;52.402;6.608;2023-06-22T08:54:16;66.35;47.42;79.05;;
80580;Laerm;69939;52.402;6.608;2023-06-22T08:56:42;63.34;44.70;74.93;;
80580;Laerm;69939;52.402;6.608;2023-06-22T08:59:10;66.79;49.10;80.49;;
80580;Laerm;69939;52.402;6.608;2023-06-22T09:01:36;65.37;44.48;78.42;;
80580;Laerm;69939;52.402;6.608;2023-06-22T09:04:04;66.20;47.13;80.00;;
80580;Laerm;69939;52.402;6.608;2023-06-22T09:06:32;64.33;44.93;75.82;;
80580;Laerm;69939;52.402;6.608;2023-06-22T09:08:59;62.97;44.44;75.96;;
80580;Laerm;69939;52.402;6.608;2023-06-22T09:11:27;64.83;44.38;81.39;;
80580;Laerm;69939;52.402;6.608;2023-06-22T09:13:54;65.46;45.08;76.89;;
80580;Laerm;69939;52.402;6.608;2023-06-22T09:16:20;62.93;42.93;73.28;;
80580;Laerm;69939;52.402;6.608;2023-06-22T09:18:48;63.83;42.22;77.67;;
80580;Laerm;69939;52.402;6.608;2023-06-22T09:21:14;62.51;43.62;71.63;;
80580;Laerm;69939;52.402;6.608;2023-06-22T09:23:41;62.54;44.11;71.77;;
80580;Laerm;69939;52.402;6.608;2023-06-22T09:26:09;67.19;44.13;87.63;;
80580;Laerm;69939;52.402;6.608;2023-06-22T09:28:37;63.54;41.76;75.23;;
80580;Laerm;69939;52.402;6.608;2023-06-22T09:31:04;64.71;43.82;74.91;;
80580;Laerm;69939;52.402;6.608;2023-06-22T09:33:32;63.63;43.07;84.94;;
80580;Laerm;69939;52.402;6.608;2023-06-22T09:35:59;66.50;45.41;83.51;;
80580;Laerm;69939;52.402;6.608;2023-06-22T09:38:26;64.96;43.30;77.95;;
80580;Laerm;69939;52.402;6.608;2023-06-22T09:40:53;64.76;47.25;74.64;;
80580;Laerm;69939;52.402;6.608;2023-06-22T09:43:19;66.17;44.85;75.21;;
80580;Laerm;69939;52.402;6.608;2023-06-22T09:45:47;63.06;47.40;79.31;;
80580;Laerm;69939;52.402;6.608;2023-06-22T09:48:14;65.58;45.22;80.00;;
80580;Laerm;69939;52.402;6.608;2023-06-22T09:50:41;67.92;44.89;87.11;;
80580;Laerm;69939;52.402;6.608;2023-06-22T09:53:07;66.05;48.94;76.98;;
80580;Laerm;69939;52.402;6.608;2023-06-22T09:55:34;66.20;42.72;81.43;;
80580;Laerm;69939;52.402;6.608;2023-06-22T09:58:01;65.99;50.21;78.67;;
80580;Laerm;69939;52.402;6.608;2023-06-22T10:00:28;64.79;41.27;79.92;;
80580;Laerm;69939;52.402;6.608;2023-06-22T10:02:57;63.48;42.18;74.57;;
80580;Laerm;69939;52.402;6.608;2023-06-22T10:05:24;61.17;40.89;71.13;;
80580;Laerm;69939;52.402;6.608;2023-06-22T10:07:51;65.75;45.50;74.91;;
80580;Laerm;69939;52.402;6.608;2023-06-22T10:10:18;66.22;47.07;82.27;;
80580;Laerm;69939;52.402;6.608;2023-06-22T10:12:47;64.81;48.54;76.28;;
80580;Laerm;69939;52.402;6.608;2023-06-22T10:15:16;65.87;46.43;81.56;;
80580;Laerm;69939;52.402;6.608;2023-06-22T10:17:43;64.74;47.04;78.51;;
80580;Laerm;69939;52.402;6.608;2023-06-22T10:20:11;64.34;41.38;75.88;;
80580;Laerm;69939;52.402;6.608;2023-06-22T10:22:39;68.86;47.25;86.84;;
80580;Laerm;69939;52.402;6.608;2023-06-22T10:25:08;66.97;46.98;75.76;;
80580;Laerm;69939;52.402;6.608;2023-06-22T10:27:35;75.90;43.56;94.09;;
80580;Laerm;69939;52.402;6.608;2023-06-22T10:30:02;64.26;44.30;72.66;;
80580;Laerm;69939;52.402;6.608;2023-06-22T10:32:30;63.98;40.99;74.98;;
80580;Laerm;69939;52.402;6.608;2023-06-22T10:34:57;65.63;43.62;77.92;;
80580;Laerm;69939;52.402;6.608;2023-06-22T10:37:25;65.67;43.51;76.88;;
80580;Laerm;69939;52.402;6.608;2023-06-22T10:39:52;67.11;43.67;88.83;;
80580;Laerm;69939;52.402;6.608;2023-06-22T10:42:19;65.19;43.48;76.88;;
80580;Laerm;69939;52.402;6.608;2023-06-22T10:44:46;66.57;49.39;77.14;;
80580;Laerm;69939;52.402;6.608;2023-06-22T10:47:13;64.85;44.35;74.86;;
80580;Laerm;69939;52.402;6.608;2023-06-22T10:49:40;66.44;44.51;80.48;;
80580;Laerm;69939;52.402;6.608;2023-06-22T10:52:08;65.52;44.69;77.98;;
80580;Laerm;69939;52.402;6.608;2023-06-22T10:54:37;68.00;50.55;84.18;;
80580;Laerm;69939;52.402;6.608;2023-06-22T10:57:05;64.33;40.74;79.51;;
80580;Laerm;69939;52.402;6.608;2023-06-22T10:59:32;64.52;44.26;75.50;;
80580;Laerm;69939;52.402;6.608;2023-06-22T11:01:58;63.93;42.02;76.77;;
80580;Laerm;69939;52.402;6.608;2023-06-22T11:04:25;64.85;48.24;73.26;;
80580;Laerm;69939;52.402;6.608;2023-06-22T11:06:52;65.80;47.23;78.47;;
80580;Laerm;69939;52.402;6.608;2023-06-22T11:09:18;65.30;49.72;76.39;;
80580;Laerm;69939;52.402;6.608;2023-06-22T11:11:49;65.55;45.95;79.69;;
80580;Laerm;69939;52.402;6.608;2023-06-22T11:14:18;65.43;42.12;76.84;;
80580;Laerm;69939;52.402;6.608;2023-06-22T11:16:46;63.89;45.86;73.60;;
80580;Laerm;69939;52.402;6.608;2023-06-22T11:19:12;65.25;45.11;78.02;;
80580;Laerm;69939;52.402;6.608;2023-06-22T11:21:39;65.16;43.92;74.57;;
80580;Laerm;69939;52.402;6.608;2023-06-22T11:24:06;64.50;47.10;75.86;;
80580;Laerm;69939;52.402;6.608;2023-06-22T11:26:33;66.64;48.00;76.02;;
80580;Laerm;69939;52.402;6.608;2023-06-22T11:29:02;64.23;43.24;76.80;;
80580;Laerm;69939;52.402;6.608;2023-06-22T11:31:31;64.25;44.68;73.61;;
80580;Laerm;69939;52.402;6.608;2023-06-22T11:33:57;66.78;52.33;81.45;;
80580;Laerm;69939;52.402;6.608;2023-06-22T11:36:25;67.20;49.81;79.08;;
80580;Laerm;69939;52.402;6.608;2023-06-22T11:38:52;66.47;47.36;77.38;;
80580;Laerm;69939;52.402;6.608;2023-06-22T11:41:19;64.28;46.91;73.15;;
80580;Laerm;69939;52.402;6.608;2023-06-22T11:43:46;66.18;49.89;82.74;;
80580;Laerm;69939;52.402;6.608;2023-06-22T11:46:14;67.19;49.34;79.14;;
80580;Laerm;69939;52.402;6.608;2023-06-22T11:48:41;67.66;49.80;80.55;;
80580;Laerm;69939;52.402;6.608;2023-06-22T11:51:08;66.38;48.85;81.54;;
80580;Laerm;69939;52.402;6.608;2023-06-22T11:53:34;65.53;49.21;78.23;;
80580;Laerm;69939;52.402;6.608;2023-06-22T11:56:01;64.70;47.21;75.21;;
80580;Laerm;69939;52.402;6.608;2023-06-22T11:58:28;64.95;45.55;79.88;;
80580;Laerm;69939;52.402;6.608;2023-06-22T12:00:55;64.40;47.12;79.42;;
80580;Laerm;69939;52.402;6.608;2023-06-22T12:03:23;64.83;45.41;80.60;;
80580;Laerm;69939;52.402;6.608;2023-06-22T12:05:50;65.78;47.05;77.53;;
80580;Laerm;69939;52.402;6.608;2023-06-22T12:08:17;66.11;45.56;82.68;;
80580;Laerm;69939;52.402;6.608;2023-06-22T12:10:44;66.47;48.80;78.30;;
80580;Laerm;69939;52.402;6.608;2023-06-22T12:13:11;65.17;45.61;77.96;;
80580;Laerm;69939;52.402;6.608;2023-06-22T12:15:38;65.80;47.30;77.39;;
80580;Laerm;69939;52.402;6.608;2023-06-22T12:18:04;65.67;45.64;77.14;;
80580;Laerm;69939;52.402;6.608;2023-06-22T12:20:32;67.68;49.45;83.03;;
80580;Laerm;69939;52.402;6.608;2023-06-22T12:22:59;64.42;48.72;78.12;;
80580;Laerm;69939;52.402;6.608;2023-06-22T12:25:26;66.39;48.26;80.33;;
80580;Laerm;69939;52.402;6.608;2023-06-22T12:27:52;64.06;45.78;81.43;;
80580;Laerm;69939;52.402;6.608;2023-06-22T12:30:19;66.23;47.72;79.30;;
80580;Laerm;69939;52.402;6.608;2023-06-22T12:32:46;65.28;46.77;80.66;;
80580;Laerm;69939;52.402;6.608;2023-06-22T12:35:13;66.67;45.44;76.68;;
80580;Laerm;69939;52.402;6.608;2023-06-22T12:37:42;66.62;47.23;78.83;;
80580;Laerm;69939;52.402;6.608;2023-06-22T12:40:10;66.72;49.54;77.62;;
80580;Laerm;69939;52.402;6.608;2023-06-22T12:42:37;68.07;46.93;91.05;;
80580;Laerm;69939;52.402;6.608;2023-06-22T12:45:05;65.08;45.94;75.37;;
80580;Laerm;69939;52.402;6.608;2023-06-22T12:47:32;64.75;44.79;75.86;;
80580;Laerm;69939;52.402;6.608;2023-06-22T12:49:58;65.88;51.20;75.62;;
80580;Laerm;69939;52.402;6.608;2023-06-22T12:52:25;64.76;47.78;73.28;;
80580;Laerm;69939;52.402;6.608;2023-06-22T12:54:53;63.79;40.99;73.14;;
80580;Laerm;69939;52.402;6.608;2023-06-22T12:57:20;66.60;47.68;78.99;;
80580;Laerm;69939;52.402;6.608;2023-06-22T12:59:47;63.40;46.19;76.87;;
80580;Laerm;69939;52.402;6.608;2023-06-22T13:02:14;64.54;41.38;76.16;;
80580;Laerm;69939;52.402;6.608;2023-06-22T13:04:41;65.88;49.33;75.78;;
80580;Laerm;69939;52.402;6.608;2023-06-22T13:07:08;63.93;43.27;73.61;;
80580;Laerm;69939;52.402;6.608;2023-06-22T13:09:36;64.10;43.32;79.52;;
80580;Laerm;69939;52.402;6.608;2023-06-22T13:12:05;66.39;46.87;77.26;;
80580;Laerm;69939;52.402;6.608;2023-06-22T13:14:32;68.17;45.76;81.42;;
80580;Laerm;69939;52.402;6.608;2023-06-22T13:16:59;69.87;45.31;84.52;;
80580;Laerm;69939;52.402;6.608;2023-06-22T13:19:26;65.58;49.33;75.19;;
80580;Laerm;69939;52.402;6.608;2023-06-22T13:21:54;63.74;46.40;72.93;;
80580;Laerm;69939;52.402;6.608;2023-06-22T13:24:20;65.00;42.36;75.07;;
80580;Laerm;69939;52.402;6.608;2023-06-22T13:26:47;66.79;45.58;77.01;;
80580;Laerm;69939;52.402;6.608;2023-06-22T13:29:15;63.62;50.08;74.92;;
80580;Laerm;69939;52.402;6.608;2023-06-22T13:31:42;62.96;52.48;73.23;;
80580;Laerm;69939;52.402;6.608;2023-06-22T13:34:09;65.70;48.53;74.94;;
80580;Laerm;69939;52.402;6.608;2023-06-22T13:36:35;66.65;44.56;76.17;;
80580;Laerm;69939;52.402;6.608;2023-06-22T13:39:02;65.16;44.08;74.03;;
80580;Laerm;69939;52.402;6.608;2023-06-22T13:41:29;65.97;49.12;77.81;;
80580;Laerm;69939;52.402;6.608;2023-06-22T13:43:56;66.19;46.34;75.29;;
80580;Laerm;69939;52.402;6.608;2023-06-22T13:46:24;64.24;46.01;72.82;;
80580;Laerm;69939;52.402;6.608;2023-06-22T13:48:51;65.33;46.85;74.28;;